Time;durP1;ratioP1;P1;durP2;ratioP2;P2;SDS_P1;SDS_P2;PMS_P1;PMS_P2;Temp;Humidity;BMP_temperature;BMP_pressure;BME280_temperature;BME280_humidity;BME280_pressure;Samples;Min_cycle;Max_cycle;Signal;HPM_P1;HPM_P2
2022/03/16 00:01:32;;;;;;;15.05;5.47;;;;;;;8.46;71.94;100475.69;5017174;28;20049;-40
2022/03/16 00:03:59;;;;;;;14.82;6.47;;;;;;;8.46;70.73;100480.88;5018692;28;20053;-47
2022/03/16 00:06:26;;;;;;;17.40;6.55;;;;;;;8.48;71.05;100486.91;5019024;28;20053;-44
2022/03/16 00:08:53;;;;;;;14.52;6.28;;;;;;;8.48;70.69;100486.06;5023785;28;20099;-42
2022/03/16 00:11:37;;;;;;;17.65;6.18;;;;;;;8.46;70.84;100483.44;5023875;28;20048;-41
2022/03/16 00:14:03;;;;;;;13.07;5.80;;;;;;;8.46;70.61;100480.88;5011702;28;20045;-45
2022/03/16 00:16:30;;;;;;;14.15;6.60;;;;;;;8.46;70.61;100483.44;5010763;28;20115;-41
2022/03/16 00:18:57;;;;;;;15.20;6.60;;;;;;;8.44;72.14;100490.28;5005466;28;20057;-43
2022/03/16 00:21:23;;;;;;;16.17;5.35;;;;;;;8.43;71.85;100491.16;5006589;28;20101;-42
2022/03/16 00:23:50;;;;;;;13.52;6.05;;;;;;;8.42;72.39;100492.00;5010325;28;20554;-43
2022/03/16 00:26:17;;;;;;;16.42;6.25;;;;;;;8.41;71.63;100492.81;5011167;28;20567;-44
2022/03/16 00:28:43;;;;;;;15.95;6.43;;;;;;;8.42;71.92;100493.69;5005307;28;20568;-44
2022/03/16 00:31:10;;;;;;;14.25;6.13;;;;;;;8.38;72.57;100492.81;5008735;28;20548;-45
2022/03/16 00:33:54;;;;;;;17.92;6.57;;;;;;;8.40;71.03;100485.94;5008664;28;20097;-44
2022/03/16 00:36:21;;;;;;;16.75;6.10;;;;;;;8.37;71.95;100485.88;4998546;28;20046;-44
2022/03/16 00:38:48;;;;;;;14.20;6.35;;;;;;;8.36;72.11;100484.16;4989685;28;20070;-44
2022/03/16 00:41:15;;;;;;;13.98;6.22;;;;;;;8.36;71.74;100479.00;4985845;28;20471;-45
2022/03/16 00:43:43;;;;;;;15.40;6.10;;;;;;;8.35;71.43;100477.28;4995655;28;20053;-45
2022/03/16 00:46:10;;;;;;;15.70;6.03;;;;;;;8.31;71.70;100478.09;5004180;28;20046;-44
2022/03/16 00:48:37;;;;;;;15.60;6.95;;;;;;;8.32;71.47;100472.06;4997614;28;20442;-48
2022/03/16 00:51:03;;;;;;;13.43;6.15;;;;;;;8.26;73.17;100466.81;5003243;28;20046;-43
2022/03/16 00:53:34;;;;;;;20.73;6.43;;;;;;;8.26;72.24;100466.81;5003632;28;20077;-45
2022/03/16 00:56:02;;;;;;;14.32;6.43;;;;;;;8.28;72.82;100459.97;4999181;28;20051;-45
2022/03/16 00:58:29;;;;;;;14.35;5.68;;;;;;;8.27;74.09;100469.41;5002912;28;20054;-44
2022/03/16 01:00:58;;;;;;;13.10;5.55;;;;;;;8.26;73.62;100464.22;4994311;28;20061;-45
2022/03/16 01:03:27;;;;;;;15.02;6.10;;;;;;;8.22;73.33;100461.63;5006516;28;20053;-48
2022/03/16 01:05:54;;;;;;;13.10;6.05;;;;;;;8.25;73.13;100460.81;4998732;28;20078;-45
2022/03/16 01:08:20;;;;;;;15.93;6.68;;;;;;;8.26;72.32;100456.50;5007954;28;20096;-42
2022/03/16 01:10:47;;;;;;;17.10;7.25;;;;;;;8.28;73.33;100462.56;5003094;28;20100;-42
2022/03/16 01:13:13;;;;;;;16.42;7.50;;;;;;;8.26;72.99;100462.53;5002736;28;20834;-45
2022/03/16 01:15:40;;;;;;;13.43;6.18;;;;;;;8.29;73.29;100457.41;4991628;28;20101;-44
2022/03/16 01:18:08;;;;;;;15.32;6.28;;;;;;;8.25;73.84;100459.91;4985896;28;20054;-45
2022/03/16 01:20:36;;;;;;;13.75;6.50;;;;;;;8.26;74.34;100451.31;4983393;28;20108;-41
2022/03/16 01:23:04;;;;;;;13.30;6.43;;;;;;;8.27;73.42;100447.91;4987464;28;20052;-43
2022/03/16 01:25:33;;;;;;;15.52;6.35;;;;;;;8.27;73.45;100458.25;4985940;28;20120;-43
2022/03/16 01:28:01;;;;;;;18.17;7.00;;;;;;;8.28;74.04;100450.50;4985284;28;20058;-45
2022/03/16 01:30:29;;;;;;;20.77;6.45;;;;;;;8.31;74.06;100449.69;4987639;28;20747;-44
2022/03/16 01:33:14;;;;;;;15.13;6.32;;;;;;;8.32;74.06;100454.00;4983800;28;20057;-43
2022/03/16 01:35:43;;;;;;;16.98;6.38;;;;;;;8.33;73.38;100447.97;4985921;28;20050;-38
2022/03/16 01:38:12;;;;;;;12.93;5.88;;;;;;;8.35;73.25;100446.31;4988504;28;20054;-43
2022/03/16 01:40:38;;;;;;;17.50;7.13;;;;;;;8.37;73.21;100460.06;4986104;28;20046;-45
2022/03/16 01:43:05;;;;;;;19.15;7.40;;;;;;;8.40;74.11;100460.13;4983214;28;20046;-41
2022/03/16 01:45:31;;;;;;;15.77;6.90;;;;;;;8.43;73.22;100455.00;4984263;28;20478;-41
2022/03/16 01:47:58;;;;;;;17.10;7.35;;;;;;;8.46;73.41;100454.16;4984399;28;20375;-43
2022/03/16 01:50:25;;;;;;;19.58;7.30;;;;;;;8.44;72.54;100451.56;4985850;28;20053;-50
2022/03/16 01:52:52;;;;;;;17.98;7.28;;;;;;;8.49;72.25;100444.72;4983749;28;20054;-43
2022/03/16 01:55:19;;;;;;;18.35;7.50;;;;;;;8.49;72.98;100449.91;4986069;28;20415;-39
2022/03/16 01:58:03;;;;;;;18.20;7.20;;;;;;;8.54;73.33;100449.16;4999754;28;20517;-44
2022/03/16 02:00:30;;;;;;;17.67;7.18;;;;;;;8.53;73.24;100450.84;4985081;28;20458;-42
2022/03/16 02:02:57;;;;;;;19.75;7.95;;;;;;;8.56;72.28;100439.69;4985412;28;20061;-40
2022/03/16 02:05:23;;;;;;;17.35;6.18;;;;;;;8.58;72.84;100449.19;4987684;28;20050;-45
2022/03/16 02:07:50;;;;;;;17.88;6.47;;;;;;;8.55;71.83;100443.97;4987213;28;20054;-44
2022/03/16 02:10:17;;;;;;;17.17;6.47;;;;;;;8.53;72.67;100444.78;4982346;28;20110;-44
2022/03/16 02:12:47;;;;;;;18.70;8.20;;;;;;;8.48;72.79;100432.69;4983128;28;20447;-46
2022/03/16 02:15:13;;;;;;;17.08;6.03;;;;;;;8.45;72.16;100442.13;4987085;28;20122;-42
2022/03/16 02:17:40;;;;;;;16.23;7.05;;;;;;;8.45;72.46;100435.22;5007155;28;20125;-44
2022/03/16 02:20:08;;;;;;;19.67;7.78;;;;;;;8.43;72.44;100429.19;5000173;28;20046;-43
2022/03/16 02:22:43;;;;;;;17.02;7.18;;;;;;;8.41;71.68;100433.47;5004493;28;20050;-45
2022/03/16 02:25:10;;;;;;;17.08;6.57;;;;;;;8.38;72.34;100430.84;5004961;28;20049;-43
2022/03/16 02:27:39;;;;;;;14.73;6.75;;;;;;;8.35;71.85;100426.50;5005313;28;20054;-44
2022/03/16 02:30:06;;;;;;;20.73;6.75;;;;;;;8.36;72.67;100428.25;5005655;28;21207;-43
2022/03/16 02:32:33;;;;;;;15.50;7.20;;;;;;;8.32;72.70;100421.31;5005240;28;20041;-41
2022/03/16 02:35:00;;;;;;;14.00;7.45;;;;;;;8.28;71.95;100418.69;5005694;28;20359;-45
2022/03/16 02:37:27;;;;;;;15.85;6.35;;;;;;;8.27;72.39;100422.13;5003215;28;20077;-44
2022/03/16 02:39:54;;;;;;;16.48;7.10;;;;;;;8.27;72.94;100422.13;4997549;28;20104;-42
2022/03/16 02:42:23;;;;;;;16.75;6.57;;;;;;;8.25;71.46;100409.19;5004724;28;20045;-41
2022/03/16 02:44:50;;;;;;;17.08;7.43;;;;;;;8.25;71.82;100414.34;5002388;28;20112;-45
2022/03/16 02:47:17;;;;;;;13.38;6.43;;;;;;;8.25;72.38;100408.31;5003607;28;20053;-44
2022/03/16 02:49:43;;;;;;;14.80;6.47;;;;;;;8.23;72.05;100411.75;5003418;28;20073;-43
2022/03/16 02:52:11;;;;;;;19.65;7.50;;;;;;;8.23;71.56;100406.59;5000659;28;20266;-45
2022/03/16 02:54:38;;;;;;;18.60;7.32;;;;;;;8.23;71.48;100411.75;4999719;28;20127;-45
2022/03/16 02:57:05;;;;;;;15.65;7.15;;;;;;;8.21;71.03;100408.25;5004692;28;20068;-43
2022/03/16 02:59:32;;;;;;;17.63;7.50;;;;;;;8.20;70.94;100413.41;4997177;28;20552;-45
2022/03/16 03:01:58;;;;;;;15.75;7.63;;;;;;;8.18;70.92;100403.06;5002879;28;20363;-42
2022/03/16 03:04:25;;;;;;;17.42;7.65;;;;;;;8.16;71.89;100404.78;5003947;28;20057;-43
2022/03/16 03:06:53;;;;;;;17.75;7.22;;;;;;;8.14;71.42;100400.44;5003076;28;20065;-44
2022/03/16 03:09:19;;;;;;;16.15;7.07;;;;;;;8.12;71.13;100403.00;5001264;28;20073;-45
2022/03/16 03:11:46;;;;;;;18.15;6.93;;;;;;;8.12;71.83;100405.56;4998480;28;20050;-43
2022/03/16 03:14:12;;;;;;;19.90;8.05;;;;;;;8.09;71.42;100398.66;5006279;28;20551;-43
2022/03/16 03:16:39;;;;;;;18.67;7.93;;;;;;;8.09;71.70;100397.78;5002890;28;20720;-42
2022/03/16 03:19:06;;;;;;;19.75;7.65;;;;;;;8.08;70.51;100396.91;5000095;28;20133;-45
2022/03/16 03:21:33;;;;;;;19.02;6.97;;;;;;;8.07;71.11;100391.75;5005333;28;20107;-45
2022/03/16 03:24:00;;;;;;;18.65;7.15;;;;;;;8.05;70.87;100390.84;5001107;28;20046;-43
2022/03/16 03:26:30;;;;;;;18.42;7.78;;;;;;;8.02;70.77;100393.41;5003139;28;20050;-44
2022/03/16 03:28:56;;;;;;;19.77;8.32;;;;;;;7.98;71.59;100389.91;5004835;28;20049;-43
2022/03/16 03:31:23;;;;;;;20.40;7.80;;;;;;;7.94;72.20;100389.00;5002918;28;20104;-42
2022/03/16 03:33:50;;;;;;;19.05;7.88;;;;;;;7.92;72.04;100385.53;5003926;28;20054;-44
2022/03/16 03:36:16;;;;;;;16.60;6.95;;;;;;;7.90;71.46;100391.53;5006787;28;20050;-42
2022/03/16 03:38:43;;;;;;;20.90;7.70;;;;;;;7.86;70.52;100390.59;5002876;28;20046;-45
2022/03/16 03:41:09;;;;;;;17.98;7.20;;;;;;;7.83;70.65;100390.56;4998048;28;20058;-46
2022/03/16 03:43:36;;;;;;;17.38;6.93;;;;;;;7.74;71.00;100395.59;5005117;28;20101;-45
2022/03/16 03:46:08;;;;;;;19.88;8.57;;;;;;;7.69;71.07;100393.81;5003386;28;20053;-44
2022/03/16 03:48:35;;;;;;;20.85;8.63;;;;;;;7.66;72.56;100398.03;5005967;28;20068;-47
2022/03/16 03:51:01;;;;;;;22.05;8.02;;;;;;;7.64;71.23;100400.63;5008476;28;20045;-42
2022/03/16 03:53:28;;;;;;;19.52;7.60;;;;;;;7.63;71.64;100398.03;5008819;28;20046;-44
2022/03/16 03:55:54;;;;;;;23.30;8.65;;;;;;;7.62;71.53;100396.25;5006126;28;20046;-44
2022/03/16 03:58:21;;;;;;;19.42;8.60;;;;;;;7.64;71.70;100395.47;5003722;28;20050;-42
2022/03/16 04:00:49;;;;;;;21.92;9.07;;;;;;;7.63;73.29;100396.28;5006605;28;20103;-42
2022/03/16 04:03:16;;;;;;;23.23;9.20;;;;;;;7.64;72.31;100399.75;5008191;28;20076;-45
2022/03/16 04:05:43;;;;;;;24.98;9.38;;;;;;;7.65;73.37;100391.16;5005968;28;20042;-43
2022/03/16 04:08:09;;;;;;;25.48;9.93;;;;;;;7.68;73.44;100392.09;5002953;28;20081;-45
2022/03/16 04:10:38;;;;;;;23.50;9.48;;;;;;;7.70;72.44;100398.13;5006160;28;20050;-46
2022/03/16 04:13:05;;;;;;;24.65;11.20;;;;;;;7.70;73.64;100400.69;5004834;28;20050;-42
2022/03/16 04:15:32;;;;;;;23.40;8.65;;;;;;;7.71;73.48;100399.84;5003819;28;20054;-40
2022/03/16 04:17:59;;;;;;;23.48;9.93;;;;;;;7.74;72.17;100400.75;5003180;28;20546;-48
2022/03/16 04:20:26;;;;;;;23.60;10.48;;;;;;;7.74;72.36;100390.44;5004194;28;20061;-43
2022/03/16 04:22:53;;;;;;;18.73;8.75;;;;;;;7.73;72.63;100389.56;5005154;28;20100;-41
2022/03/16 04:25:20;;;;;;;25.00;11.23;;;;;;;7.75;73.73;100387.00;5007749;28;20488;-44
2022/03/16 04:27:46;;;;;;;25.00;9.82;;;;;;;7.73;73.11;100384.41;5008244;28;20057;-45
2022/03/16 04:30:13;;;;;;;24.45;11.85;;;;;;;7.76;73.64;100388.72;5009176;28;20433;-44
2022/03/16 04:32:39;;;;;;;23.63;9.77;;;;;;;7.78;73.56;100387.06;5006533;28;20042;-47
2022/03/16 04:35:06;;;;;;;23.85;11.25;;;;;;;7.79;72.42;100388.78;5010014;28;20076;-43
2022/03/16 04:37:33;;;;;;;24.60;9.68;;;;;;;7.81;72.83;100389.69;5004008;28;20053;-42
2022/03/16 04:40:00;;;;;;;22.88;10.30;;;;;;;7.83;72.05;100390.56;5005714;28;20104;-44
2022/03/16 04:42:26;;;;;;;24.38;9.98;;;;;;;7.85;71.77;100394.03;5006051;28;20042;-44
2022/03/16 04:44:53;;;;;;;24.35;9.35;;;;;;;7.86;72.19;100405.22;5006384;28;20049;-43
2022/03/16 04:47:19;;;;;;;21.77;9.25;;;;;;;7.86;72.53;100400.91;5007018;28;20050;-44
2022/03/16 04:49:46;;;;;;;23.90;10.52;;;;;;;7.86;73.04;100400.91;5006803;28;20050;-42
2022/03/16 04:52:12;;;;;;;24.15;9.65;;;;;;;7.89;72.84;100405.25;5005101;28;20041;-44
2022/03/16 04:54:39;;;;;;;24.38;10.05;;;;;;;7.91;72.57;100399.25;5005832;28;20054;-41
2022/03/16 04:57:05;;;;;;;24.90;10.25;;;;;;;7.94;72.65;100399.31;5005038;28;20100;-47
2022/03/16 04:59:32;;;;;;;23.05;9.73;;;;;;;7.98;72.51;100400.25;5009164;28;20105;-46
2022/03/16 05:01:59;;;;;;;22.80;9.52;;;;;;;8.02;72.56;100406.28;5005074;28;20096;-44
2022/03/16 05:04:25;;;;;;;23.88;9.50;;;;;;;8.04;72.33;100399.44;5009648;28;20441;-43
2022/03/16 05:06:53;;;;;;;25.38;9.23;;;;;;;8.06;72.10;100398.63;5004946;28;20070;-43
2022/03/16 05:09:20;;;;;;;22.85;9.15;;;;;;;8.07;71.73;100400.34;5007232;28;20049;-45
2022/03/16 05:11:46;;;;;;;23.98;9.98;;;;;;;8.09;71.79;100392.63;5004252;28;20112;-42
2022/03/16 05:14:13;;;;;;;22.15;9.23;;;;;;;8.12;71.92;100392.69;5008474;28;20046;-44
2022/03/16 05:16:39;;;;;;;21.65;9.20;;;;;;;8.15;72.20;100392.72;5004604;28;20797;-41
2022/03/16 05:19:06;;;;;;;25.17;11.35;;;;;;;8.16;71.16;100399.59;5005625;28;20425;-42
2022/03/16 05:21:33;;;;;;;25.05;10.98;;;;;;;8.17;71.08;100393.59;5006283;28;20104;-45
2022/03/16 05:24:00;;;;;;;29.00;11.02;;;;;;;8.19;72.16;100393.63;5005862;28;20053;-44
2022/03/16 05:26:26;;;;;;;30.98;11.63;;;;;;;8.19;70.98;100399.66;5004453;28;20054;-46
2022/03/16 05:28:53;;;;;;;29.13;11.18;;;;;;;8.20;71.02;100406.53;5005456;28;20054;-42
2022/03/16 05:31:20;;;;;;;26.58;11.65;;;;;;;8.22;71.06;100399.69;5003328;28;20037;-43
2022/03/16 05:33:48;;;;;;;26.25;11.30;;;;;;;8.22;72.01;100394.53;5006479;28;20097;-41
2022/03/16 05:36:15;;;;;;;26.42;11.43;;;;;;;8.23;71.07;100396.25;5002941;28;20054;-46
2022/03/16 05:38:42;;;;;;;28.75;12.93;;;;;;;8.26;70.87;100391.97;5001599;28;20429;-46
2022/03/16 05:41:11;;;;;;;29.20;11.80;;;;;;;8.26;71.74;100397.13;5005476;28;20050;-47
2022/03/16 05:43:38;;;;;;;30.30;11.02;;;;;;;8.26;71.13;100397.13;5003827;28;20104;-42
2022/03/16 05:46:04;;;;;;;26.90;11.40;;;;;;;8.26;70.94;100403.16;5004419;28;20046;-43
2022/03/16 05:48:31;;;;;;;30.98;11.70;;;;;;;8.25;71.55;100409.19;5001883;28;20048;-43
2022/03/16 05:50:58;;;;;;;30.67;11.45;;;;;;;8.26;72.36;100407.44;5008395;28;20045;-43
2022/03/16 05:53:24;;;;;;;29.95;11.77;;;;;;;8.23;71.83;100414.31;5006047;28;20042;-45
2022/03/16 05:55:51;;;;;;;31.60;12.52;;;;;;;8.22;72.60;100409.13;5007376;28;20054;-41
2022/03/16 05:58:17;;;;;;;30.33;12.05;;;;;;;8.22;71.71;100409.13;5003061;28;20046;-44
2022/03/16 06:00:44;;;;;;;32.05;13.15;;;;;;;8.21;72.18;100412.56;5003366;28;20046;-41
2022/03/16 06:03:11;;;;;;;31.30;13.45;;;;;;;8.21;72.14;100418.59;5004032;28;20386;-45
2022/03/16 06:05:38;;;;;;;32.20;12.23;;;;;;;8.19;72.96;100419.41;5003336;28;20063;-43
2022/03/16 06:08:22;;;;;;;33.60;12.30;;;;;;;8.18;72.74;100413.38;5004212;28;20096;-44
2022/03/16 06:10:48;;;;;;;32.15;13.35;;;;;;;8.17;72.43;100411.66;5005291;28;20053;-44
2022/03/16 06:13:16;;;;;;;33.72;12.52;;;;;;;8.17;72.85;100410.81;5005212;28;20046;-45
2022/03/16 06:15:43;;;;;;;33.08;12.27;;;;;;;8.17;72.64;100411.66;5005509;28;20045;-43
2022/03/16 06:18:11;;;;;;;30.25;12.15;;;;;;;8.14;73.43;100396.13;5003207;28;20474;-42
2022/03/16 06:20:38;;;;;;;30.88;12.27;;;;;;;8.16;73.39;100397.03;5000864;28;20172;-46
2022/03/16 06:23:05;;;;;;;32.30;12.20;;;;;;;8.19;72.31;100386.75;5001834;28;21871;-41
2022/03/16 06:25:36;;;;;;;33.20;11.80;;;;;;;8.22;72.19;100386.78;4999068;28;20077;-44
2022/03/16 06:28:03;;;;;;;34.00;14.15;;;;;;;8.26;72.03;100391.97;5002172;28;20057;-46
2022/03/16 06:30:29;;;;;;;34.35;12.52;;;;;;;8.28;72.67;100393.72;5008026;28;20129;-47
2022/03/16 06:32:56;;;;;;;27.88;11.35;;;;;;;8.31;72.69;100396.34;5003739;28;20050;-49
2022/03/16 06:35:23;;;;;;;31.20;13.20;;;;;;;8.33;71.79;100398.94;5004682;28;20053;-44
2022/03/16 06:37:49;;;;;;;31.55;12.77;;;;;;;8.34;72.10;100404.13;5007313;28;20046;-44
2022/03/16 06:40:16;;;;;;;34.60;12.90;;;;;;;8.37;72.48;100403.28;5007925;28;20073;-42
2022/03/16 06:42:45;;;;;;;37.75;12.93;;;;;;;8.37;72.08;100403.28;5000598;28;20045;-42
2022/03/16 06:45:12;;;;;;;33.28;12.55;;;;;;;8.38;72.68;100404.16;5006261;28;20085;-44
2022/03/16 06:47:39;;;;;;;32.50;12.40;;;;;;;8.38;72.14;100399.88;5008385;28;20076;-44
2022/03/16 06:50:06;;;;;;;33.20;12.63;;;;;;;8.39;72.59;100396.44;5004365;28;20080;-42
2022/03/16 06:52:33;;;;;;;32.05;13.85;;;;;;;8.41;72.05;100399.06;4999591;28;20095;-42
2022/03/16 06:55:00;;;;;;;33.53;14.95;;;;;;;8.42;71.56;100401.66;5004543;28;20444;-41
2022/03/16 06:57:26;;;;;;;40.53;15.73;;;;;;;8.46;72.00;100402.53;5008666;28;20633;-44
2022/03/16 06:59:59;;;;;;;32.45;12.45;;;;;;;8.48;72.07;100409.44;5007715;28;20085;-45
2022/03/16 07:02:26;;;;;;;29.30;12.45;;;;;;;8.52;72.58;100412.06;5001112;28;20054;-44
2022/03/16 07:04:53;;;;;;;34.70;13.63;;;;;;;8.54;72.32;100410.44;5005259;28;20108;-45
2022/03/16 07:07:19;;;;;;;31.25;12.55;;;;;;;8.52;72.79;100418.13;4995309;28;20101;-42
2022/03/16 07:09:46;;;;;;;37.05;13.55;;;;;;;8.54;72.71;100420.75;5001968;28;20050;-40
2022/03/16 07:12:12;;;;;;;33.67;13.57;;;;;;;8.55;71.75;100417.31;5002362;28;20101;-42
2022/03/16 07:14:39;;;;;;;33.50;13.95;;;;;;;8.56;71.64;100408.72;4989258;28;20039;-42
2022/03/16 07:17:06;;;;;;;34.25;13.65;;;;;;;8.57;71.92;100415.59;5004563;28;20049;-44
2022/03/16 07:19:32;;;;;;;35.42;13.23;;;;;;;8.57;71.72;100418.19;5003281;28;20057;-43
2022/03/16 07:22:00;;;;;;;37.20;15.98;;;;;;;8.58;72.24;100417.34;5004353;28;20633;-44
2022/03/16 07:24:27;;;;;;;34.83;13.38;;;;;;;8.59;72.44;100419.06;5007844;28;20149;-42
2022/03/16 07:26:55;;;;;;;33.85;15.60;;;;;;;8.59;72.11;100416.50;5008316;28;20496;-45
2022/03/16 07:29:22;;;;;;;38.28;15.20;;;;;;;8.54;73.07;100418.16;5001260;28;20112;-41
2022/03/16 07:31:49;;;;;;;38.97;16.08;;;;;;;8.53;71.89;100411.22;5004662;28;20480;-42
2022/03/16 07:34:16;;;;;;;39.85;15.55;;;;;;;8.52;72.04;100405.22;5003161;28;20058;-47
2022/03/16 07:36:43;;;;;;;41.72;16.30;;;;;;;8.56;72.20;100404.44;5003849;28;20461;-45
2022/03/16 07:39:11;;;;;;;44.53;17.80;;;;;;;8.60;72.15;100413.06;5009209;28;20054;-47
2022/03/16 07:41:38;;;;;;;44.45;18.33;;;;;;;8.61;72.18;100417.38;5008498;28;20380;-42
2022/03/16 07:44:06;;;;;;;48.15;17.92;;;;;;;8.64;73.16;100416.56;5008380;28;20073;-45
2022/03/16 07:46:33;;;;;;;46.42;16.67;;;;;;;8.63;72.81;100418.25;5006357;28;20046;-43
2022/03/16 07:49:00;;;;;;;43.30;19.27;;;;;;;8.64;73.00;100422.56;5002435;28;20414;-42
2022/03/16 07:51:26;;;;;;;43.55;15.98;;;;;;;8.62;73.61;100424.28;5010006;28;20046;-44
2022/03/16 07:53:53;;;;;;;35.75;14.52;;;;;;;8.61;73.96;100433.72;5004975;28;20046;-41
2022/03/16 07:56:19;;;;;;;43.95;16.20;;;;;;;8.59;72.89;100426.81;5001265;28;20050;-43
2022/03/16 07:58:46;;;;;;;36.78;14.85;;;;;;;8.60;73.85;100425.97;5006915;28;20050;-42
2022/03/16 08:01:13;;;;;;;42.38;17.33;;;;;;;8.60;73.64;100431.13;5005378;28;20049;-44
2022/03/16 08:03:40;;;;;;;44.33;16.02;;;;;;;8.59;73.85;100424.25;5005667;28;20042;-43
2022/03/16 08:06:07;;;;;;;40.80;15.77;;;;;;;8.61;74.60;100428.56;5008518;28;20053;-46
2022/03/16 08:08:35;;;;;;;40.22;17.98;;;;;;;8.64;74.29;100432.91;5008419;28;20425;-42
2022/03/16 08:11:02;;;;;;;37.22;15.18;;;;;;;8.66;73.76;100433.78;5005282;28;20050;-41
2022/03/16 08:13:28;;;;;;;37.60;15.30;;;;;;;8.69;73.98;100426.09;5006040;28;20112;-44
2022/03/16 08:15:55;;;;;;;41.20;16.58;;;;;;;8.73;74.43;100432.13;5009359;28;20570;-45
2022/03/16 08:18:22;;;;;;;40.08;17.23;;;;;;;8.76;73.66;100428.72;5003724;28;20380;-42
2022/03/16 08:20:48;;;;;;;39.00;14.50;;;;;;;8.77;73.87;100433.03;5009028;28;20046;-45
2022/03/16 08:23:15;;;;;;;37.30;14.40;;;;;;;8.71;74.96;100432.13;5002613;28;20045;-42
2022/03/16 08:25:52;;;;;;;33.83;14.18;;;;;;;8.74;74.98;100434.75;5005601;28;20112;-44
2022/03/16 08:28:18;;;;;;;34.60;14.05;;;;;;;8.76;74.90;100436.47;5003796;28;20050;-42
2022/03/16 08:30:45;;;;;;;37.47;14.43;;;;;;;8.78;74.62;100429.63;5002861;28;20518;-45
2022/03/16 08:33:12;;;;;;;33.25;13.60;;;;;;;8.85;74.25;100434.00;5001960;28;20048;-46
2022/03/16 08:35:39;;;;;;;35.83;14.43;;;;;;;8.90;74.19;100444.38;5010121;28;20442;-48
2022/03/16 08:38:05;;;;;;;41.20;15.15;;;;;;;8.94;73.72;100441.84;5009055;28;20050;-42
2022/03/16 08:40:32;;;;;;;39.55;16.65;;;;;;;8.96;74.36;100440.16;5008007;28;20722;-45
2022/03/16 08:42:59;;;;;;;38.45;13.93;;;;;;;8.96;74.22;100434.09;5009949;28;20104;-43
2022/03/16 08:45:25;;;;;;;36.42;14.07;;;;;;;8.97;74.25;100441.88;5009220;28;20045;-42
2022/03/16 08:47:52;;;;;;;34.53;14.40;;;;;;;9.00;74.66;100438.44;5009933;28;20100;-43
2022/03/16 08:50:18;;;;;;;31.27;13.05;;;;;;;9.03;75.14;100443.66;5007225;28;20050;-43
2022/03/16 08:52:45;;;;;;;34.47;13.80;;;;;;;9.05;74.54;100454.00;4990679;28;20075;-48
2022/03/16 08:55:14;;;;;;;37.88;13.95;;;;;;;9.07;74.46;100452.28;4990623;28;20101;-48
2022/03/16 08:57:45;;;;;;;32.67;12.35;;;;;;;9.05;75.20;100448.84;4990962;28;20057;-41
2022/03/16 09:00:18;;;;;;;37.20;13.75;;;;;;;9.12;75.34;100454.06;5004586;28;20129;-41
2022/03/16 09:02:46;;;;;;;36.67;14.98;;;;;;;9.19;74.47;100457.56;4999195;28;20050;-45
2022/03/16 09:05:15;;;;;;;30.08;11.93;;;;;;;9.12;74.46;100461.81;5004257;28;20048;-45
2022/03/16 09:07:42;;;;;;;27.00;11.63;;;;;;;9.03;73.87;100463.44;5007997;28;20084;-45
2022/03/16 09:10:09;;;;;;;30.58;12.98;;;;;;;9.04;75.00;100457.41;5009153;28;20050;-43
2022/03/16 09:12:36;;;;;;;26.88;11.07;;;;;;;8.98;75.07;100456.50;5003336;28;20096;-46
2022/03/16 09:15:04;;;;;;;28.98;11.63;;;;;;;9.00;75.36;100462.59;5005748;28;20096;-43
2022/03/16 09:17:33;;;;;;;34.95;13.27;;;;;;;9.05;74.99;100459.19;4996157;28;20052;-46
2022/03/16 09:20:01;;;;;;;33.80;12.45;;;;;;;9.06;74.76;100456.63;4999104;28;20050;-44
2022/03/16 09:22:28;;;;;;;31.67;11.57;;;;;;;9.12;74.36;100450.63;5001039;28;20050;-44
2022/03/16 09:24:56;;;;;;;31.30;13.25;;;;;;;9.19;74.16;100444.66;5000669;28;20104;-46
2022/03/16 09:27:24;;;;;;;33.55;13.63;;;;;;;9.29;74.15;100452.50;4994412;28;20053;-43
2022/03/16 09:29:53;;;;;;;31.55;13.45;;;;;;;9.37;73.88;100450.84;4998319;28;20050;-45
2022/03/16 09:32:21;;;;;;;33.60;12.43;;;;;;;9.36;74.31;100444.81;5004912;28;21893;-44
2022/03/16 09:34:49;;;;;;;32.88;12.55;;;;;;;9.37;73.91;100437.94;4986209;28;20047;-43
2022/03/16 09:37:16;;;;;;;32.40;12.73;;;;;;;9.35;73.94;100442.19;4996397;28;20109;-44
2022/03/16 09:39:44;;;;;;;33.97;13.25;;;;;;;9.32;73.77;100442.19;5005007;28;20046;-43
2022/03/16 09:42:11;;;;;;;27.92;11.02;;;;;;;9.28;73.77;100440.44;5009200;28;20141;-44
2022/03/16 09:44:38;;;;;;;32.75;12.10;;;;;;;9.27;74.32;100434.41;5009613;28;20052;-43
2022/03/16 09:47:08;;;;;;;33.30;13.43;;;;;;;9.26;73.90;100425.75;5008217;28;20110;-47
2022/03/16 09:49:37;;;;;;;32.30;13.43;;;;;;;9.33;73.74;100423.25;5001313;28;20144;-43
2022/03/16 09:52:07;;;;;;;33.97;13.57;;;;;;;9.38;73.63;100411.22;5004691;28;20050;-45
2022/03/16 09:54:34;;;;;;;32.10;13.98;;;;;;;9.43;73.89;100388.88;5004876;28;20664;-45
2022/03/16 09:57:01;;;;;;;28.65;12.60;;;;;;;9.47;73.02;100367.34;4994353;28;20046;-45
2022/03/16 09:59:27;;;;;;;29.02;11.70;;;;;;;9.57;73.15;100364.81;4997787;28;20049;-44
2022/03/16 10:02:09;;;;;;;30.70;13.77;;;;;;;9.62;72.90;100363.09;4998787;28;20053;-42
2022/03/16 10:04:38;;;;;;;31.55;13.18;;;;;;;9.68;72.98;100373.50;4998808;28;20041;-44
2022/03/16 10:07:06;;;;;;;32.92;13.40;;;;;;;9.72;72.60;100388.19;4992625;28;20049;-42
2022/03/16 10:23:14;;;;;;;34.08;14.15;;;;;;;9.36;73.62;100407.75;5001005;28;20403;-43
2022/03/16 10:33:49;;;;;;;34.13;14.45;;;;;;;9.23;74.81;100397.31;5053192;27;20414;-43
2022/03/16 10:36:20;;;;;;;41.42;14.00;;;;;;;9.23;74.38;100394.72;5024439;28;20099;-44
2022/03/16 10:38:52;;;;;;;36.35;13.02;;;;;;;9.22;74.51;100398.16;5024427;28;20061;-46
2022/03/16 10:47:18;;;;;;;35.22;13.48;;;;;;;9.24;74.20;100393.88;5016361;28;20506;-45
2022/03/16 10:49:48;;;;;;;40.67;14.80;;;;;;;9.26;74.29;100396.47;5018391;28;20041;-43
2022/03/16 10:52:18;;;;;;;38.42;13.95;;;;;;;9.30;74.56;100393.06;5021184;28;20527;-44
2022/03/16 10:54:48;;;;;;;39.20;15.98;;;;;;;9.33;74.31;100381.88;5017664;28;20063;-43
2022/03/16 10:57:15;;;;;;;;;;;;;;;9.28;75.31;100383.56;5022522;28;20533;-43
2022/03/16 10:59:43;;;;;;;40.05;15.02;;;;;;;9.32;74.80;100369.81;5023696;28;19921;-44
2022/03/16 11:02:12;;;;;;;38.30;13.50;;;;;;;9.34;74.96;100365.50;5013130;28;20042;-42
2022/03/16 11:04:43;;;;;;;41.55;14.40;;;;;;;9.33;74.17;100362.09;5013884;28;20053;-43
2022/03/16 11:07:10;;;;;;;35.45;15.02;;;;;;;9.36;74.48;100361.22;5016306;28;20163;-42
2022/03/16 11:09:38;;;;;;;39.42;15.80;;;;;;;9.35;74.56;100369.81;5014470;28;20049;-45
2022/03/16 11:15:01;;;;;;;43.65;15.02;;;;;;;9.35;73.96;100369.81;5009778;28;20045;-44
2022/03/16 11:17:31;;;;;;;48.88;15.85;;;;;;;9.38;74.59;100364.69;5014058;28;20045;-46
2022/03/16 11:20:00;;;;;;;41.88;14.35;;;;;;;9.37;74.69;100369.00;5010439;28;20111;-41
2022/03/16 11:25:39;;;;;;;47.17;16.38;;;;;;;9.45;74.21;100356.13;5012605;28;20045;-45
2022/03/16 11:28:12;;;;;;;47.60;16.42;;;;;;;9.52;73.70;100347.53;5016580;28;20104;-42
2022/03/16 11:30:39;;;;;;;56.42;17.00;;;;;;;9.63;73.69;100339.00;5013534;28;20124;-46
2022/03/16 11:33:08;;;;;;;49.72;17.15;;;;;;;9.67;73.63;100345.03;5013341;28;20046;-44
2022/03/16 11:35:44;;;;;;;45.47;16.00;;;;;;;9.71;73.00;100332.16;5022252;28;20061;-41
2022/03/16 11:38:13;;;;;;;52.85;17.40;;;;;;;9.81;73.11;100329.59;5023598;28;20042;-44
2022/03/16 11:40:43;;;;;;;46.65;16.13;;;;;;;9.92;73.14;100327.06;5021511;28;20111;-45
2022/03/16 11:56:44;;;;;;;50.88;17.85;;;;;;;10.21;72.50;100303.00;5062511;28;20934;-43
2022/03/16 11:59:28;;;;;;;49.03;16.92;;;;;;;10.18;72.62;100285.75;5057537;28;20052;-41
2022/03/16 12:02:06;;;;;;;47.17;16.05;;;;;;;10.18;72.71;100274.53;5042618;28;20048;-43
2022/03/16 12:04:39;;;;;;;42.15;14.27;;;;;;;10.15;72.91;100280.56;5052892;28;20048;-40
2022/03/16 12:07:30;;;;;;;46.83;16.65;;;;;;;10.15;71.95;100283.16;5055765;28;20498;-41
2022/03/16 12:12:51;;;;;;;48.53;15.77;;;;;;;10.10;72.69;100269.34;5024004;28;20408;-42
2022/03/16 12:20:53;;;;;;;42.25;16.67;;;;;;;10.11;71.69;100252.94;5038907;28;20404;-46